sensor_id;sensor_type;location;lat;lon;timestamp;temperature;humidity
6978;DHT22;3529;53.244;10.414;2022-09-13T00:00:36;14.80;99.90
6978;DHT22;3529;53.244;10.414;2022-09-13T00:03:02;14.90;99.90
6978;DHT22;3529;53.244;10.414;2022-09-13T00:05:28;14.90;99.90
6978;DHT22;3529;53.244;10.414;2022-09-13T00:07:54;14.90;99.90
6978;DHT22;3529;53.244;10.414;2022-09-13T00:10:20;14.90;99.90
6978;DHT22;3529;53.244;10.414;2022-09-13T00:12:49;15.00;99.90
6978;DHT22;3529;53.244;10.414;2022-09-13T00:15:15;15.00;99.90
6978;DHT22;3529;53.244;10.414;2022-09-13T00:17:41;15.00;99.90
6978;DHT22;3529;53.244;10.414;2022-09-13T00:20:08;15.00;99.90
6978;DHT22;3529;53.244;10.414;2022-09-13T00:22:34;15.00;99.90
6978;DHT22;3529;53.244;10.414;2022-09-13T00:25:00;15.10;99.90
6978;DHT22;3529;53.244;10.414;2022-09-13T00:27:26;15.10;99.90
6978;DHT22;3529;53.244;10.414;2022-09-13T00:29:51;15.10;99.90
6978;DHT22;3529;53.244;10.414;2022-09-13T00:32:17;15.00;99.90
6978;DHT22;3529;53.244;10.414;2022-09-13T00:34:42;15.00;99.90
6978;DHT22;3529;53.244;10.414;2022-09-13T00:37:08;15.00;99.90
6978;DHT22;3529;53.244;10.414;2022-09-13T00:39:34;15.00;99.90
6978;DHT22;3529;53.244;10.414;2022-09-13T00:42:00;15.00;99.90
6978;DHT22;3529;53.244;10.414;2022-09-13T00:44:57;15.00;99.90
6978;DHT22;3529;53.244;10.414;2022-09-13T00:52:33;15.00;99.90
6978;DHT22;3529;53.244;10.414;2022-09-13T00:55:07;15.00;99.90
6978;DHT22;3529;53.244;10.414;2022-09-13T00:57:35;15.00;99.90
6978;DHT22;3529;53.244;10.414;2022-09-13T01:00:07;15.10;99.90
6978;DHT22;3529;53.244;10.414;2022-09-13T01:02:39;15.10;99.90
6978;DHT22;3529;53.244;10.414;2022-09-13T01:05:06;15.10;99.90
6978;DHT22;3529;53.244;10.414;2022-09-13T01:07:33;15.10;99.90
6978;DHT22;3529;53.244;10.414;2022-09-13T01:10:00;15.00;99.90
6978;DHT22;3529;53.244;10.414;2022-09-13T01:15:03;15.00;99.90
6978;DHT22;3529;53.244;10.414;2022-09-13T01:17:31;15.00;99.90
6978;DHT22;3529;53.244;10.414;2022-09-13T01:19:58;15.10;99.90
6978;DHT22;3529;53.244;10.414;2022-09-13T01:27:53;15.10;99.90
6978;DHT22;3529;53.244;10.414;2022-09-13T01:30:44;15.00;99.90
6978;DHT22;3529;53.244;10.414;2022-09-13T01:46:21;14.80;99.90
6978;DHT22;3529;53.244;10.414;2022-09-13T01:51:34;14.60;99.90
6978;DHT22;3529;53.244;10.414;2022-09-13T01:56:38;14.30;99.90
6978;DHT22;3529;53.244;10.414;2022-09-13T01:59:20;14.20;99.90
6978;DHT22;3529;53.244;10.414;2022-09-13T02:04:21;14.10;99.90
6978;DHT22;3529;53.244;10.414;2022-09-13T02:06:52;14.10;99.90
6978;DHT22;3529;53.244;10.414;2022-09-13T02:09:24;14.10;99.90
6978;DHT22;3529;53.244;10.414;2022-09-13T02:11:58;14.00;99.90
6978;DHT22;3529;53.244;10.414;2022-09-13T02:14:49;14.00;99.90
6978;DHT22;3529;53.244;10.414;2022-09-13T02:17:23;14.10;99.90
6978;DHT22;3529;53.244;10.414;2022-09-13T02:20:00;14.00;99.90
6978;DHT22;3529;53.244;10.414;2022-09-13T02:22:33;14.00;99.90
6978;DHT22;3529;53.244;10.414;2022-09-13T02:25:05;14.00;99.90
6978;DHT22;3529;53.244;10.414;2022-09-13T02:27:34;14.00;99.90
6978;DHT22;3529;53.244;10.414;2022-09-13T02:30:07;14.00;99.90
6978;DHT22;3529;53.244;10.414;2022-09-13T02:32:48;14.00;99.90
6978;DHT22;3529;53.244;10.414;2022-09-13T02:35:30;14.00;99.90
6978;DHT22;3529;53.244;10.414;2022-09-13T02:38:04;14.00;99.90
6978;DHT22;3529;53.244;10.414;2022-09-13T02:40:36;14.00;99.90
6978;DHT22;3529;53.244;10.414;2022-09-13T02:43:21;14.00;99.90
6978;DHT22;3529;53.244;10.414;2022-09-13T02:46:00;14.10;99.90
6978;DHT22;3529;53.244;10.414;2022-09-13T02:51:22;14.00;99.90
6978;DHT22;3529;53.244;10.414;2022-09-13T02:59:23;14.10;99.90
6978;DHT22;3529;53.244;10.414;2022-09-13T03:02:12;14.10;99.90
6978;DHT22;3529;53.244;10.414;2022-09-13T03:04:39;14.00;99.90
6978;DHT22;3529;53.244;10.414;2022-09-13T03:07:12;14.00;99.90
6978;DHT22;3529;53.244;10.414;2022-09-13T03:09:54;14.10;99.90
6978;DHT22;3529;53.244;10.414;2022-09-13T03:24:06;14.10;99.90
6978;DHT22;3529;53.244;10.414;2022-09-13T03:29:49;14.10;99.90
6978;DHT22;3529;53.244;10.414;2022-09-13T03:32:36;14.20;99.90
6978;DHT22;3529;53.244;10.414;2022-09-13T03:37:46;14.20;99.90
6978;DHT22;3529;53.244;10.414;2022-09-13T03:42:59;14.20;99.90
6978;DHT22;3529;53.244;10.414;2022-09-13T03:45:29;14.10;99.90
6978;DHT22;3529;53.244;10.414;2022-09-13T03:47:56;14.10;99.90
6978;DHT22;3529;53.244;10.414;2022-09-13T03:50:23;14.10;99.90
6978;DHT22;3529;53.244;10.414;2022-09-13T03:53:00;14.10;99.90
6978;DHT22;3529;53.244;10.414;2022-09-13T03:55:29;14.20;99.90
6978;DHT22;3529;53.244;10.414;2022-09-13T03:57:56;14.20;99.90
6978;DHT22;3529;53.244;10.414;2022-09-13T04:00:21;14.10;99.90
6978;DHT22;3529;53.244;10.414;2022-09-13T04:02:47;14.10;99.90
6978;DHT22;3529;53.244;10.414;2022-09-13T04:05:13;14.20;99.90
6978;DHT22;3529;53.244;10.414;2022-09-13T04:07:38;14.10;99.90
6978;DHT22;3529;53.244;10.414;2022-09-13T04:10:04;14.10;99.90
6978;DHT22;3529;53.244;10.414;2022-09-13T04:12:30;14.10;99.90
6978;DHT22;3529;53.244;10.414;2022-09-13T04:14:56;14.10;99.90
6978;DHT22;3529;53.244;10.414;2022-09-13T04:17:22;14.20;99.90
6978;DHT22;3529;53.244;10.414;2022-09-13T04:19:48;14.20;99.90
6978;DHT22;3529;53.244;10.414;2022-09-13T04:22:14;14.20;99.90
6978;DHT22;3529;53.244;10.414;2022-09-13T04:24:39;14.20;99.90
6978;DHT22;3529;53.244;10.414;2022-09-13T04:27:06;14.20;99.90
6978;DHT22;3529;53.244;10.414;2022-09-13T04:29:31;14.20;99.90
6978;DHT22;3529;53.244;10.414;2022-09-13T04:31:57;14.20;99.90
6978;DHT22;3529;53.244;10.414;2022-09-13T04:34:23;14.30;99.90
6978;DHT22;3529;53.244;10.414;2022-09-13T04:36:50;14.30;99.90
6978;DHT22;3529;53.244;10.414;2022-09-13T04:39:17;14.20;99.90
6978;DHT22;3529;53.244;10.414;2022-09-13T04:41:44;14.20;99.90
6978;DHT22;3529;53.244;10.414;2022-09-13T04:44:11;14.20;99.90
6978;DHT22;3529;53.244;10.414;2022-09-13T04:46:37;14.30;99.90
6978;DHT22;3529;53.244;10.414;2022-09-13T04:49:03;14.30;99.90
6978;DHT22;3529;53.244;10.414;2022-09-13T04:51:29;14.30;99.90
6978;DHT22;3529;53.244;10.414;2022-09-13T04:53:55;14.30;99.90
6978;DHT22;3529;53.244;10.414;2022-09-13T04:56:22;14.30;99.90
6978;DHT22;3529;53.244;10.414;2022-09-13T04:58:52;14.30;99.90
6978;DHT22;3529;53.244;10.414;2022-09-13T05:01:18;14.30;99.90
6978;DHT22;3529;53.244;10.414;2022-09-13T05:03:44;14.30;99.90
6978;DHT22;3529;53.244;10.414;2022-09-13T05:06:13;14.30;99.90
6978;DHT22;3529;53.244;10.414;2022-09-13T05:08:39;14.30;99.90
6978;DHT22;3529;53.244;10.414;2022-09-13T05:11:05;14.40;99.90
6978;DHT22;3529;53.244;10.414;2022-09-13T05:13:32;14.30;99.90
6978;DHT22;3529;53.244;10.414;2022-09-13T05:16:00;14.40;99.90
6978;DHT22;3529;53.244;10.414;2022-09-13T05:18:27;14.40;99.90
6978;DHT22;3529;53.244;10.414;2022-09-13T05:20:58;14.40;99.90
6978;DHT22;3529;53.244;10.414;2022-09-13T05:23:25;14.50;99.90
6978;DHT22;3529;53.244;10.414;2022-09-13T05:25:58;14.50;99.90
6978;DHT22;3529;53.244;10.414;2022-09-13T05:28:27;14.50;99.90
6978;DHT22;3529;53.244;10.414;2022-09-13T05:31:06;14.50;99.90
6978;DHT22;3529;53.244;10.414;2022-09-13T05:33:34;14.50;99.90
6978;DHT22;3529;53.244;10.414;2022-09-13T05:36:01;14.50;99.90
6978;DHT22;3529;53.244;10.414;2022-09-13T05:38:27;14.60;99.90
6978;DHT22;3529;53.244;10.414;2022-09-13T05:40:57;14.60;99.90
6978;DHT22;3529;53.244;10.414;2022-09-13T05:43:24;14.60;99.90
6978;DHT22;3529;53.244;10.414;2022-09-13T05:45:50;14.60;99.90
6978;DHT22;3529;53.244;10.414;2022-09-13T05:48:16;14.60;99.90
6978;DHT22;3529;53.244;10.414;2022-09-13T05:50:41;14.60;99.90
6978;DHT22;3529;53.244;10.414;2022-09-13T05:53:07;14.60;99.90
6978;DHT22;3529;53.244;10.414;2022-09-13T05:55:33;14.70;99.90
6978;DHT22;3529;53.244;10.414;2022-09-13T05:58:00;14.70;99.90
6978;DHT22;3529;53.244;10.414;2022-09-13T06:00:26;14.70;99.90
6978;DHT22;3529;53.244;10.414;2022-09-13T06:02:52;14.70;99.90
6978;DHT22;3529;53.244;10.414;2022-09-13T06:05:18;14.70;99.90
6978;DHT22;3529;53.244;10.414;2022-09-13T06:07:43;14.80;99.90
6978;DHT22;3529;53.244;10.414;2022-09-13T06:10:10;14.80;99.90
6978;DHT22;3529;53.244;10.414;2022-09-13T06:12:36;14.80;99.90
6978;DHT22;3529;53.244;10.414;2022-09-13T06:15:01;14.80;99.90
6978;DHT22;3529;53.244;10.414;2022-09-13T06:17:27;14.80;99.90
6978;DHT22;3529;53.244;10.414;2022-09-13T06:19:53;14.90;99.90
6978;DHT22;3529;53.244;10.414;2022-09-13T06:22:18;14.90;99.90
6978;DHT22;3529;53.244;10.414;2022-09-13T06:24:44;15.00;99.90
6978;DHT22;3529;53.244;10.414;2022-09-13T06:27:10;15.00;99.90
6978;DHT22;3529;53.244;10.414;2022-09-13T06:29:36;15.00;99.90
6978;DHT22;3529;53.244;10.414;2022-09-13T06:32:02;15.10;99.90
6978;DHT22;3529;53.244;10.414;2022-09-13T06:34:28;15.10;99.90
6978;DHT22;3529;53.244;10.414;2022-09-13T06:36:54;15.10;99.90
6978;DHT22;3529;53.244;10.414;2022-09-13T06:39:19;15.20;99.90
6978;DHT22;3529;53.244;10.414;2022-09-13T06:41:45;15.20;99.90
6978;DHT22;3529;53.244;10.414;2022-09-13T06:44:10;15.30;99.90
6978;DHT22;3529;53.244;10.414;2022-09-13T06:46:37;15.30;99.90
6978;DHT22;3529;53.244;10.414;2022-09-13T06:49:06;15.30;99.90
6978;DHT22;3529;53.244;10.414;2022-09-13T06:51:34;15.40;99.90
6978;DHT22;3529;53.244;10.414;2022-09-13T06:54:00;15.40;99.90
6978;DHT22;3529;53.244;10.414;2022-09-13T06:56:30;15.40;99.90
6978;DHT22;3529;53.244;10.414;2022-09-13T06:59:02;15.50;99.90
6978;DHT22;3529;53.244;10.414;2022-09-13T07:01:31;15.50;99.90
6978;DHT22;3529;53.244;10.414;2022-09-13T07:04:00;15.60;99.90
6978;DHT22;3529;53.244;10.414;2022-09-13T07:06:28;15.70;99.90
6978;DHT22;3529;53.244;10.414;2022-09-13T07:08:55;15.80;99.90
6978;DHT22;3529;53.244;10.414;2022-09-13T07:11:23;15.80;99.90
6978;DHT22;3529;53.244;10.414;2022-09-13T07:13:51;15.80;99.90
6978;DHT22;3529;53.244;10.414;2022-09-13T07:16:18;15.70;99.90
6978;DHT22;3529;53.244;10.414;2022-09-13T07:18:44;15.80;99.90
6978;DHT22;3529;53.244;10.414;2022-09-13T07:21:11;15.80;99.90
6978;DHT22;3529;53.244;10.414;2022-09-13T07:23:38;15.90;99.90
6978;DHT22;3529;53.244;10.414;2022-09-13T07:26:05;16.00;99.90
6978;DHT22;3529;53.244;10.414;2022-09-13T07:28:37;16.20;99.90
6978;DHT22;3529;53.244;10.414;2022-09-13T07:31:15;16.40;99.90
6978;DHT22;3529;53.244;10.414;2022-09-13T07:33:43;16.40;99.90
6978;DHT22;3529;53.244;10.414;2022-09-13T07:36:10;16.50;99.90
6978;DHT22;3529;53.244;10.414;2022-09-13T07:38:38;16.60;99.90
6978;DHT22;3529;53.244;10.414;2022-09-13T07:41:05;16.70;99.90
6978;DHT22;3529;53.244;10.414;2022-09-13T07:43:34;16.80;99.90
6978;DHT22;3529;53.244;10.414;2022-09-13T07:46:07;16.80;99.90
6978;DHT22;3529;53.244;10.414;2022-09-13T07:48:35;16.80;99.90
6978;DHT22;3529;53.244;10.414;2022-09-13T07:51:06;16.90;99.90
6978;DHT22;3529;53.244;10.414;2022-09-13T07:53:32;16.90;99.90
6978;DHT22;3529;53.244;10.414;2022-09-13T07:56:16;17.00;99.90
6978;DHT22;3529;53.244;10.414;2022-09-13T07:58:43;17.10;99.90
6978;DHT22;3529;53.244;10.414;2022-09-13T08:01:19;17.20;99.90
6978;DHT22;3529;53.244;10.414;2022-09-13T08:04:00;17.30;99.90
6978;DHT22;3529;53.244;10.414;2022-09-13T08:06:27;17.40;99.90
6978;DHT22;3529;53.244;10.414;2022-09-13T08:08:53;17.40;99.90
6978;DHT22;3529;53.244;10.414;2022-09-13T08:11:31;17.50;99.90
6978;DHT22;3529;53.244;10.414;2022-09-13T08:13:58;17.70;99.90
6978;DHT22;3529;53.244;10.414;2022-09-13T08:16:25;17.70;99.90
6978;DHT22;3529;53.244;10.414;2022-09-13T08:18:53;17.90;99.90
6978;DHT22;3529;53.244;10.414;2022-09-13T08:21:19;18.10;99.90
6978;DHT22;3529;53.244;10.414;2022-09-13T08:23:45;18.30;99.90
6978;DHT22;3529;53.244;10.414;2022-09-13T08:26:12;18.30;99.90
6978;DHT22;3529;53.244;10.414;2022-09-13T08:28:39;18.40;99.90
6978;DHT22;3529;53.244;10.414;2022-09-13T08:33:30;18.70;99.90
6978;DHT22;3529;53.244;10.414;2022-09-13T08:35:56;18.80;99.90
6978;DHT22;3529;53.244;10.414;2022-09-13T08:38:23;18.90;99.90
6978;DHT22;3529;53.244;10.414;2022-09-13T08:43:50;18.80;99.90
6978;DHT22;3529;53.244;10.414;2022-09-13T08:46:36;18.60;99.90
6978;DHT22;3529;53.244;10.414;2022-09-13T08:49:07;18.50;99.90
6978;DHT22;3529;53.244;10.414;2022-09-13T08:51:41;18.40;99.90
6978;DHT22;3529;53.244;10.414;2022-09-13T08:54:11;18.20;99.90
6978;DHT22;3529;53.244;10.414;2022-09-13T08:56:39;18.10;99.90
6978;DHT22;3529;53.244;10.414;2022-09-13T09:04:53;18.00;99.90
6978;DHT22;3529;53.244;10.414;2022-09-13T09:07:25;18.20;99.90
6978;DHT22;3529;53.244;10.414;2022-09-13T09:20:31;18.90;99.90
6978;DHT22;3529;53.244;10.414;2022-09-13T09:23:09;19.10;99.90
6978;DHT22;3529;53.244;10.414;2022-09-13T09:25:37;19.30;99.90
6978;DHT22;3529;53.244;10.414;2022-09-13T09:28:12;19.30;99.90
6978;DHT22;3529;53.244;10.414;2022-09-13T09:31:04;19.20;99.90
6978;DHT22;3529;53.244;10.414;2022-09-13T09:38:42;18.80;99.90
6978;DHT22;3529;53.244;10.414;2022-09-13T09:41:24;18.80;99.90
6978;DHT22;3529;53.244;10.414;2022-09-13T09:44:18;18.80;99.90
6978;DHT22;3529;53.244;10.414;2022-09-13T09:46:49;19.20;99.90
6978;DHT22;3529;53.244;10.414;2022-09-13T09:49:47;19.70;99.90
6978;DHT22;3529;53.244;10.414;2022-09-13T10:00:31;20.20;99.90
6978;DHT22;3529;53.244;10.414;2022-09-13T10:03:28;20.20;99.90
6978;DHT22;3529;53.244;10.414;2022-09-13T10:08:33;19.90;99.90
6978;DHT22;3529;53.244;10.414;2022-09-13T10:10:59;20.10;99.90
6978;DHT22;3529;53.244;10.414;2022-09-13T10:13:27;20.20;99.90
6978;DHT22;3529;53.244;10.414;2022-09-13T10:15:54;20.20;99.90
6978;DHT22;3529;53.244;10.414;2022-09-13T10:18:22;20.70;99.90
6978;DHT22;3529;53.244;10.414;2022-09-13T10:21:01;20.70;99.90
6978;DHT22;3529;53.244;10.414;2022-09-13T10:23:28;20.60;99.90
6978;DHT22;3529;53.244;10.414;2022-09-13T10:25:57;20.50;99.90
6978;DHT22;3529;53.244;10.414;2022-09-13T10:28:25;20.40;99.90
6978;DHT22;3529;53.244;10.414;2022-09-13T10:31:18;20.30;99.90
6978;DHT22;3529;53.244;10.414;2022-09-13T10:34:00;20.50;99.90
6978;DHT22;3529;53.244;10.414;2022-09-13T10:36:36;20.90;99.90
6978;DHT22;3529;53.244;10.414;2022-09-13T10:39:11;21.30;99.90
6978;DHT22;3529;53.244;10.414;2022-09-13T10:41:39;21.60;99.90
6978;DHT22;3529;53.244;10.414;2022-09-13T10:46:53;21.40;99.90
6978;DHT22;3529;53.244;10.414;2022-09-13T10:49:44;21.40;99.90
6978;DHT22;3529;53.244;10.414;2022-09-13T10:52:47;21.50;99.90
6978;DHT22;3529;53.244;10.414;2022-09-13T10:57:46;21.50;99.90
6978;DHT22;3529;53.244;10.414;2022-09-13T11:00:18;21.60;99.90
6978;DHT22;3529;53.244;10.414;2022-09-13T11:08:54;21.80;99.90
6978;DHT22;3529;53.244;10.414;2022-09-13T11:22:35;21.00;99.90
6978;DHT22;3529;53.244;10.414;2022-09-13T11:39:37;21.40;99.90
6978;DHT22;3529;53.244;10.414;2022-09-13T11:47:54;23.40;99.90
6978;DHT22;3529;53.244;10.414;2022-09-13T11:50:33;23.20;99.90
6978;DHT22;3529;53.244;10.414;2022-09-13T11:53:45;22.60;99.90
6978;DHT22;3529;53.244;10.414;2022-09-13T11:56:45;22.20;99.90
6978;DHT22;3529;53.244;10.414;2022-09-13T12:01:52;23.60;99.90
6978;DHT22;3529;53.244;10.414;2022-09-13T12:04:27;24.60;99.90
6978;DHT22;3529;53.244;10.414;2022-09-13T12:07:02;25.50;99.90
6978;DHT22;3529;53.244;10.414;2022-09-13T12:09:34;26.40;99.90
6978;DHT22;3529;53.244;10.414;2022-09-13T12:12:06;26.90;99.90
6978;DHT22;3529;53.244;10.414;2022-09-13T12:15:02;27.40;99.90
6978;DHT22;3529;53.244;10.414;2022-09-13T12:17:42;27.80;99.90
6978;DHT22;3529;53.244;10.414;2022-09-13T12:22:41;28.40;99.90
6978;DHT22;3529;53.244;10.414;2022-09-13T12:25:18;28.30;99.90
6978;DHT22;3529;53.244;10.414;2022-09-13T12:27:53;28.10;99.90
6978;DHT22;3529;53.244;10.414;2022-09-13T12:30:22;27.50;99.90
6978;DHT22;3529;53.244;10.414;2022-09-13T12:32:49;26.40;99.90
6978;DHT22;3529;53.244;10.414;2022-09-13T12:35:21;26.20;99.90
6978;DHT22;3529;53.244;10.414;2022-09-13T12:38:03;26.20;99.90
6978;DHT22;3529;53.244;10.414;2022-09-13T12:46:44;25.80;99.90
6978;DHT22;3529;53.244;10.414;2022-09-13T12:55:03;23.20;99.90
6978;DHT22;3529;53.244;10.414;2022-09-13T13:00:25;23.10;99.90
6978;DHT22;3529;53.244;10.414;2022-09-13T13:03:27;23.70;99.90
6978;DHT22;3529;53.244;10.414;2022-09-13T13:06:08;24.50;99.90
6978;DHT22;3529;53.244;10.414;2022-09-13T13:08:34;25.00;99.90
6978;DHT22;3529;53.244;10.414;2022-09-13T13:11:09;25.20;99.90
6978;DHT22;3529;53.244;10.414;2022-09-13T13:13:37;25.30;99.90
6978;DHT22;3529;53.244;10.414;2022-09-13T13:16:26;25.50;99.90
6978;DHT22;3529;53.244;10.414;2022-09-13T13:18:54;25.70;99.90
6978;DHT22;3529;53.244;10.414;2022-09-13T13:26:49;24.70;99.90
6978;DHT22;3529;53.244;10.414;2022-09-13T13:29:18;24.80;99.90
6978;DHT22;3529;53.244;10.414;2022-09-13T13:32:04;25.00;99.90
6978;DHT22;3529;53.244;10.414;2022-09-13T13:34:46;24.90;99.90
6978;DHT22;3529;53.244;10.414;2022-09-13T13:39:45;24.30;99.90
6978;DHT22;3529;53.244;10.414;2022-09-13T13:42:30;24.30;99.90
6978;DHT22;3529;53.244;10.414;2022-09-13T13:50:14;24.60;99.90
6978;DHT22;3529;53.244;10.414;2022-09-13T13:55:28;24.50;99.90
6978;DHT22;3529;53.244;10.414;2022-09-13T14:00:46;24.00;99.90
6978;DHT22;3529;53.244;10.414;2022-09-13T14:06:05;23.90;99.90
6978;DHT22;3529;53.244;10.414;2022-09-13T14:11:21;24.00;99.90
6978;DHT22;3529;53.244;10.414;2022-09-13T14:19:33;24.70;99.90
6978;DHT22;3529;53.244;10.414;2022-09-13T14:22:22;24.70;99.90
6978;DHT22;3529;53.244;10.414;2022-09-13T14:24:53;24.90;99.90
6978;DHT22;3529;53.244;10.414;2022-09-13T14:27:34;25.10;99.90
6978;DHT22;3529;53.244;10.414;2022-09-13T14:30:25;25.40;99.90
6978;DHT22;3529;53.244;10.414;2022-09-13T14:32:52;25.60;99.90
6978;DHT22;3529;53.244;10.414;2022-09-13T14:37:56;25.40;99.90
6978;DHT22;3529;53.244;10.414;2022-09-13T14:40:34;24.90;99.90
6978;DHT22;3529;53.244;10.414;2022-09-13T14:42:59;24.60;99.90
6978;DHT22;3529;53.244;10.414;2022-09-13T14:45:34;24.30;99.90
6978;DHT22;3529;53.244;10.414;2022-09-13T14:48:21;24.10;99.90
6978;DHT22;3529;53.244;10.414;2022-09-13T14:53:21;23.50;99.90
6978;DHT22;3529;53.244;10.414;2022-09-13T14:58:19;23.20;99.90
6978;DHT22;3529;53.244;10.414;2022-09-13T15:01:02;23.20;99.90
6978;DHT22;3529;53.244;10.414;2022-09-13T15:03:30;23.10;99.90
6978;DHT22;3529;53.244;10.414;2022-09-13T15:05:58;22.90;99.90
6978;DHT22;3529;53.244;10.414;2022-09-13T15:11:00;22.70;99.90
6978;DHT22;3529;53.244;10.414;2022-09-13T15:13:26;22.50;99.90
6978;DHT22;3529;53.244;10.414;2022-09-13T15:15:52;22.50;99.90
6978;DHT22;3529;53.244;10.414;2022-09-13T15:20:58;22.30;99.90
6978;DHT22;3529;53.244;10.414;2022-09-13T15:23:25;22.30;99.90
6978;DHT22;3529;53.244;10.414;2022-09-13T15:28:26;22.00;99.90
6978;DHT22;3529;53.244;10.414;2022-09-13T15:30:53;21.80;99.90
6978;DHT22;3529;53.244;10.414;2022-09-13T15:33:30;21.60;99.90
6978;DHT22;3529;53.244;10.414;2022-09-13T15:41:35;21.10;99.90
6978;DHT22;3529;53.244;10.414;2022-09-13T15:44:03;21.00;99.90
6978;DHT22;3529;53.244;10.414;2022-09-13T15:46:30;20.80;99.90
6978;DHT22;3529;53.244;10.414;2022-09-13T15:48:59;20.60;99.90
6978;DHT22;3529;53.244;10.414;2022-09-13T15:51:25;20.50;99.90
6978;DHT22;3529;53.244;10.414;2022-09-13T15:53:53;20.30;99.90
6978;DHT22;3529;53.244;10.414;2022-09-13T15:56:29;20.10;99.90
6978;DHT22;3529;53.244;10.414;2022-09-13T15:58:56;19.90;99.90
6978;DHT22;3529;53.244;10.414;2022-09-13T16:01:21;19.80;99.90
6978;DHT22;3529;53.244;10.414;2022-09-13T16:03:47;19.70;99.90
6978;DHT22;3529;53.244;10.414;2022-09-13T16:06:12;19.70;99.90
6978;DHT22;3529;53.244;10.414;2022-09-13T16:08:39;19.70;99.90
6978;DHT22;3529;53.244;10.414;2022-09-13T16:11:05;19.60;99.90
6978;DHT22;3529;53.244;10.414;2022-09-13T16:13:31;19.60;99.90
6978;DHT22;3529;53.244;10.414;2022-09-13T16:15:57;19.40;99.90
6978;DHT22;3529;53.244;10.414;2022-09-13T16:18:23;19.30;99.90
6978;DHT22;3529;53.244;10.414;2022-09-13T16:20:49;19.30;99.90
6978;DHT22;3529;53.244;10.414;2022-09-13T16:23:14;19.30;99.90
6978;DHT22;3529;53.244;10.414;2022-09-13T16:25:40;19.20;99.90
6978;DHT22;3529;53.244;10.414;2022-09-13T16:28:06;19.20;99.90
6978;DHT22;3529;53.244;10.414;2022-09-13T16:30:32;19.10;99.90
6978;DHT22;3529;53.244;10.414;2022-09-13T16:32:58;19.10;99.90
6978;DHT22;3529;53.244;10.414;2022-09-13T16:35:29;19.10;99.90
6978;DHT22;3529;53.244;10.414;2022-09-13T16:37:55;19.00;99.90
6978;DHT22;3529;53.244;10.414;2022-09-13T16:40:21;19.00;99.90
6978;DHT22;3529;53.244;10.414;2022-09-13T16:42:46;18.90;99.90
6978;DHT22;3529;53.244;10.414;2022-09-13T16:45:12;18.80;99.90
6978;DHT22;3529;53.244;10.414;2022-09-13T16:47:38;18.60;99.90
6978;DHT22;3529;53.244;10.414;2022-09-13T20:07:51;14.10;99.90
6978;DHT22;3529;53.244;10.414;2022-09-13T20:13:39;14.10;99.90
6978;DHT22;3529;53.244;10.414;2022-09-13T20:16:19;14.10;99.90
6978;DHT22;3529;53.244;10.414;2022-09-13T20:18:45;14.10;99.90
6978;DHT22;3529;53.244;10.414;2022-09-13T20:21:11;14.10;99.90
6978;DHT22;3529;53.244;10.414;2022-09-13T20:23:40;14.10;99.90
6978;DHT22;3529;53.244;10.414;2022-09-13T20:26:18;14.10;99.90
6978;DHT22;3529;53.244;10.414;2022-09-13T20:28:44;14.00;99.90
6978;DHT22;3529;53.244;10.414;2022-09-13T20:31:11;14.00;99.90
6978;DHT22;3529;53.244;10.414;2022-09-13T20:33:37;13.90;99.90
6978;DHT22;3529;53.244;10.414;2022-09-13T20:36:06;13.90;99.90
6978;DHT22;3529;53.244;10.414;2022-09-13T20:38:35;13.90;99.90
6978;DHT22;3529;53.244;10.414;2022-09-13T20:41:12;13.80;99.90
6978;DHT22;3529;53.244;10.414;2022-09-13T20:43:38;13.80;99.90
6978;DHT22;3529;53.244;10.414;2022-09-13T20:46:04;13.70;99.90
6978;DHT22;3529;53.244;10.414;2022-09-13T20:48:31;13.70;99.90
6978;DHT22;3529;53.244;10.414;2022-09-13T20:51:17;13.70;99.90
6978;DHT22;3529;53.244;10.414;2022-09-13T20:53:44;13.70;99.90
6978;DHT22;3529;53.244;10.414;2022-09-13T20:56:13;13.60;99.90
6978;DHT22;3529;53.244;10.414;2022-09-13T20:58:40;13.60;99.90
6978;DHT22;3529;53.244;10.414;2022-09-13T21:01:16;13.60;99.90
6978;DHT22;3529;53.244;10.414;2022-09-13T21:03:45;13.60;99.90
6978;DHT22;3529;53.244;10.414;2022-09-13T21:06:11;13.50;99.90
6978;DHT22;3529;53.244;10.414;2022-09-13T21:08:36;13.50;99.90
6978;DHT22;3529;53.244;10.414;2022-09-13T21:11:12;13.40;99.90
6978;DHT22;3529;53.244;10.414;2022-09-13T21:13:41;13.40;99.90
6978;DHT22;3529;53.244;10.414;2022-09-13T21:16:13;13.40;99.90
6978;DHT22;3529;53.244;10.414;2022-09-13T21:18:39;13.30;99.90
6978;DHT22;3529;53.244;10.414;2022-09-13T21:21:06;13.30;99.90
6978;DHT22;3529;53.244;10.414;2022-09-13T21:23:33;13.30;99.90
6978;DHT22;3529;53.244;10.414;2022-09-13T21:26:04;13.40;99.90
6978;DHT22;3529;53.244;10.414;2022-09-13T21:28:33;13.40;99.90
6978;DHT22;3529;53.244;10.414;2022-09-13T21:31:01;13.50;99.90
6978;DHT22;3529;53.244;10.414;2022-09-13T21:33:27;13.60;99.90
6978;DHT22;3529;53.244;10.414;2022-09-13T21:35:57;13.70;99.90
6978;DHT22;3529;53.244;10.414;2022-09-13T21:38:28;13.80;99.90
6978;DHT22;3529;53.244;10.414;2022-09-13T21:41:03;13.80;99.90
6978;DHT22;3529;53.244;10.414;2022-09-13T21:43:29;14.00;99.90
6978;DHT22;3529;53.244;10.414;2022-09-13T21:48:34;14.10;99.90
6978;DHT22;3529;53.244;10.414;2022-09-13T21:51:27;14.20;99.90
6978;DHT22;3529;53.244;10.414;2022-09-13T21:53:55;14.30;99.90
6978;DHT22;3529;53.244;10.414;2022-09-13T21:56:25;14.50;99.90
6978;DHT22;3529;53.244;10.414;2022-09-13T21:58:53;14.50;99.90
6978;DHT22;3529;53.244;10.414;2022-09-13T22:01:21;14.60;99.90
6978;DHT22;3529;53.244;10.414;2022-09-13T22:03:48;14.70;99.90
6978;DHT22;3529;53.244;10.414;2022-09-13T22:06:14;14.70;99.90
6978;DHT22;3529;53.244;10.414;2022-09-13T22:08:42;14.80;99.90
6978;DHT22;3529;53.244;10.414;2022-09-13T22:11:16;14.80;99.90
6978;DHT22;3529;53.244;10.414;2022-09-13T22:13:43;14.80;99.90
6978;DHT22;3529;53.244;10.414;2022-09-13T22:16:18;14.70;99.90
6978;DHT22;3529;53.244;10.414;2022-09-13T22:18:51;14.70;99.90
6978;DHT22;3529;53.244;10.414;2022-09-13T22:21:19;14.70;99.90
6978;DHT22;3529;53.244;10.414;2022-09-13T22:23:45;14.70;99.90
6978;DHT22;3529;53.244;10.414;2022-09-13T22:26:13;14.70;99.90
6978;DHT22;3529;53.244;10.414;2022-09-13T22:28:39;14.70;99.90
6978;DHT22;3529;53.244;10.414;2022-09-13T22:31:10;14.70;99.90
6978;DHT22;3529;53.244;10.414;2022-09-13T22:33:36;14.70;99.90
6978;DHT22;3529;53.244;10.414;2022-09-13T22:36:05;14.70;99.90
6978;DHT22;3529;53.244;10.414;2022-09-13T22:38:33;14.60;99.90
6978;DHT22;3529;53.244;10.414;2022-09-13T22:41:05;14.70;99.90
6978;DHT22;3529;53.244;10.414;2022-09-13T22:43:31;14.60;99.90
6978;DHT22;3529;53.244;10.414;2022-09-13T22:46:07;14.70;99.90
6978;DHT22;3529;53.244;10.414;2022-09-13T22:48:33;14.60;99.90
6978;DHT22;3529;53.244;10.414;2022-09-13T22:50:59;14.60;99.90
6978;DHT22;3529;53.244;10.414;2022-09-13T22:53:26;14.50;99.90
6978;DHT22;3529;53.244;10.414;2022-09-13T22:55:52;14.50;99.90
6978;DHT22;3529;53.244;10.414;2022-09-13T22:58:17;14.50;99.90
6978;DHT22;3529;53.244;10.414;2022-09-13T23:00:44;14.50;99.90
6978;DHT22;3529;53.244;10.414;2022-09-13T23:03:10;14.40;99.90